Airfield :
LOGIN :

Register | Disclaimer

   EN    FR    IT 

 










Legend :    VFR   Marginal VFR   IFR   Intensive IFR   Very Intensive IFR
Visi :
Ceiling :
>= 8 km
>= 3000ft
5 to 8 km
1000 to 3000 ft
1500m to 5 km
500 to 1000 ft
800 to 1500m
200 to 500 ft
< 800m
< 200 ft
Symbols :   Thunderstorms  Fog  Heavy snow  Heavy precipitations  Wind > 20 kt
SIGMETs :     Misc.  Thunderstorms  Icing  Turbulence  Mountain Waves  Volcanic Ashes






- Airport Elevation : 154 ft
- IATA code : SZZ


EPSC - Szczecin Goleniow

CURRENT METAR :
  • 060030Z 16003KT 130V190 CAVOK M03/M05 Q1039

EXPIRED METARs :
  • 060000Z 14004KT CAVOK M04/M06 Q1039
  • 052330Z 14005KT CAVOK M04/M06 Q1039
  • 052300Z 13003KT CAVOK M04/M06 Q1039
  • 052230Z 14004KT CAVOK M05/M06 Q1039
  • 052130Z VRB02KT CAVOK M05/M06 Q1039

TAF TAF EPSC
Valid from the 06 at 00:00 until the 07 at 00:00 UTC


052330Z 0600/0624 VRB03KT CAVOK
PROB40 0603/0608 3000 -SN BR BKN004
TEMPO 0608/0612 BKN014
BECMG 0619/0622 3000 BR BKN005



MET'MAP, your aeronautical weather chart ! - Copyright ORBIFLY December 2007 - Disclaimer

ORBIFLY MET'MAP TEAM :

Programming & Development : Alexandra Zaïnal
Original concept : Baudouin d'Aumeries
Technical & hardware support : Manuel Goepfert
Assistance : Marc-Olivier Méhu




SOURCES & CREDITS :

   NOAA